createdAt,value
2023-12-29T00:01:24.238Z,101421.30
2023-12-29T00:03:33.789Z,101420.04
2023-12-29T00:05:43.444Z,101418.56
2023-12-29T00:07:52.926Z,101420.20
2023-12-29T00:10:13.193Z,101418.95
2023-12-29T00:12:22.755Z,101422.65
2023-12-29T00:14:35.850Z,101425.20
2023-12-29T00:16:48.352Z,101420.46
2023-12-29T00:19:02.110Z,101418.30
2023-12-29T00:21:11.618Z,101412.34
2023-12-29T00:23:31.884Z,101409.39
2023-12-29T00:25:42.376Z,101408.52
2023-12-29T00:28:12.131Z,101406.78
2023-12-29T00:30:28.019Z,101405.50
2023-12-29T00:32:53.259Z,101402.05
2023-12-29T00:35:02.939Z,101406.45
2023-12-29T00:37:15.498Z,101397.30
2023-12-29T00:39:40.404Z,101391.27
2023-12-29T00:41:51.215Z,101386.08
2023-12-29T00:44:20.544Z,101389.39
2023-12-29T00:46:40.859Z,101379.89
2023-12-29T00:48:50.651Z,101372.95
2023-12-29T00:51:11.262Z,101369.60
2023-12-29T00:53:23.971Z,101368.67
2023-12-29T00:55:33.552Z,101369.14
2023-12-29T00:57:43.174Z,101371.23
2023-12-29T00:59:54.217Z,101368.40
2023-12-29T01:02:03.827Z,101362.26
2023-12-29T01:04:16.833Z,101364.73
2023-12-29T01:06:28.122Z,101359.08
2023-12-29T01:08:37.741Z,101361.16
2023-12-29T01:10:47.188Z,101369.10
2023-12-29T01:12:56.817Z,101369.69
2023-12-29T01:15:06.960Z,101365.49
2023-12-29T01:17:16.679Z,101373.80
2023-12-29T01:19:25.872Z,101372.52
2023-12-29T01:21:36.102Z,101370.95
2023-12-29T01:23:45.798Z,101371.05
2023-12-29T01:25:58.141Z,101358.07
2023-12-29T01:28:08.279Z,101360.16
2023-12-29T01:30:18.412Z,101364.78
2023-12-29T01:32:28.270Z,101367.57
2023-12-29T01:34:37.801Z,101378.73
2023-12-29T01:36:47.319Z,101379.65
2023-12-29T01:38:56.687Z,101377.63
2023-12-29T01:41:06.125Z,101376.21
2023-12-29T01:43:35.929Z,101374.06
2023-12-29T01:45:55.252Z,101373.19
2023-12-29T01:48:09.093Z,101368.08
2023-12-29T01:50:25.322Z,101365.79
2023-12-29T01:52:55.954Z,101368.40
2023-12-29T01:55:05.891Z,101370.23
2023-12-29T01:57:19.274Z,101362.36
2023-12-29T01:59:33.786Z,101365.95
2023-12-29T02:01:47.441Z,101366.91
2023-12-29T02:04:00.854Z,101363.80
2023-12-29T02:06:15.795Z,101364.23
2023-12-29T02:08:36.875Z,101362.67
2023-12-29T02:10:50.125Z,101360.94
2023-12-29T02:13:10.904Z,101365.91
2023-12-29T02:15:24.159Z,101367.87
2023-12-29T02:17:47.973Z,101372.23
2023-12-29T02:20:10.272Z,101372.31
2023-12-29T02:22:20.288Z,101370.09
2023-12-29T02:24:40.504Z,101370.53
2023-12-29T02:27:00.768Z,101365.11
2023-12-29T02:29:15.237Z,101368.59
2023-12-29T02:31:27.480Z,101369.49
2023-12-29T02:33:48.856Z,101370.23
2023-12-29T02:36:04.667Z,101372.80
2023-12-29T02:38:12.419Z,101367.77
2023-12-29T02:40:26.178Z,101364.74
2023-12-29T02:42:39.838Z,101353.86
2023-12-29T02:44:52.348Z,101363.17
2023-12-29T02:47:02.390Z,101363.44
2023-12-29T02:49:14.605Z,101360.48
2023-12-29T02:51:44.081Z,101358.66
2023-12-29T02:53:54.449Z,101353.98
2023-12-29T02:56:04.433Z,101344.55
2023-12-29T02:58:14.309Z,101347.25
2023-12-29T03:00:24.624Z,101342.98
2023-12-29T03:02:39.983Z,101342.85
2023-12-29T03:04:52.401Z,101344.90
2023-12-29T03:07:02.486Z,101339.20
2023-12-29T03:09:12.457Z,101340.30
2023-12-29T03:11:25.481Z,101338.33
2023-12-29T03:13:37.948Z,101342.67
2023-12-29T03:15:50.618Z,101346.11
2023-12-29T03:18:00.724Z,101345.02
2023-12-29T03:20:15.252Z,101345.86
2023-12-29T03:22:34.461Z,101349.94
2023-12-29T03:24:48.525Z,101349.77
2023-12-29T03:27:10.957Z,101346.92
2023-12-29T03:29:29.743Z,101341.26
2023-12-29T03:31:39.383Z,101339.78
2023-12-29T03:33:48.950Z,101337.46
2023-12-29T03:36:01.913Z,101331.80
2023-12-29T03:38:15.794Z,101323.45
2023-12-29T03:40:28.606Z,101309.66
2023-12-29T03:42:58.500Z,101300.86
2023-12-29T03:45:21.587Z,101303.81
2023-12-29T03:47:37.654Z,101304.64
2023-12-29T03:49:57.684Z,101297.99
2023-12-29T03:52:10.597Z,101290.73
2023-12-29T03:54:30.435Z,101287.39
2023-12-29T03:56:40.297Z,101280.41
2023-12-29T03:58:50.204Z,101273.25
2023-12-29T04:01:03.339Z,101272.06
2023-12-29T04:03:12.618Z,101277.02
2023-12-29T04:05:22.416Z,101277.13
2023-12-29T04:07:31.719Z,101276.80
2023-12-29T04:09:41.574Z,101272.20
2023-12-29T04:11:54.909Z,101269.92
2023-12-29T04:14:10.079Z,101270.73
2023-12-29T04:16:19.443Z,101274.71
2023-12-29T04:18:32.383Z,101277.02
2023-12-29T04:21:02.441Z,101266.30
2023-12-29T04:23:31.761Z,101266.80
2023-12-29T04:25:41.750Z,101265.75
2023-12-29T04:27:51.631Z,101265.68
2023-12-29T04:30:01.475Z,101266.70
2023-12-29T04:32:21.211Z,101266.32
2023-12-29T04:34:41.659Z,101264.80
2023-12-29T04:37:11.071Z,101260.36
2023-12-29T04:39:20.479Z,101259.36
2023-12-29T04:41:33.120Z,101254.61
2023-12-29T04:43:53.025Z,101260.70
2023-12-29T04:46:03.614Z,101260.80
2023-12-29T04:48:13.669Z,101250.69
2023-12-29T04:50:26.497Z,101249.86
2023-12-29T04:52:37.585Z,101249.19
2023-12-29T04:54:47.392Z,101249.66
2023-12-29T04:56:57.020Z,101246.94
2023-12-29T04:59:26.760Z,101241.55
2023-12-29T05:01:36.436Z,101237.23
2023-12-29T05:03:46.101Z,101234.64
2023-12-29T05:05:58.551Z,101229.77
2023-12-29T05:08:19.218Z,101223.20
2023-12-29T05:10:39.643Z,101217.11
2023-12-29T05:12:58.375Z,101221.16
2023-12-29T05:15:18.833Z,101215.38
2023-12-29T05:17:48.593Z,101222.98
2023-12-29T05:20:09.152Z,101224.21
2023-12-29T05:22:21.832Z,101216.44
2023-12-29T05:24:51.428Z,101216.81
2023-12-29T05:27:04.625Z,101213.63
2023-12-29T05:29:15.058Z,101209.41
2023-12-29T05:31:24.385Z,101202.63
2023-12-29T05:33:34.784Z,101196.05
2023-12-29T05:35:44.444Z,101189.59
2023-12-29T05:37:54.257Z,101186.14
2023-12-29T05:40:17.878Z,101178.74
2023-12-29T05:42:27.579Z,101175.46
2023-12-29T05:44:38.596Z,101176.27
2023-12-29T05:46:53.380Z,101167.58
2023-12-29T05:49:03.065Z,101168.73
2023-12-29T05:51:15.425Z,101162.20
2023-12-29T05:53:35.121Z,101154.65
2023-12-29T05:55:46.181Z,101157.15
2023-12-29T05:58:16.448Z,101159.05
2023-12-29T06:00:26.101Z,101159.59
2023-12-29T06:02:46.997Z,101158.44
2023-12-29T06:04:56.590Z,101150.41
2023-12-29T06:07:09.915Z,101153.67
2023-12-29T06:09:19.836Z,101146.74
2023-12-29T06:11:32.821Z,101142.40
2023-12-29T06:13:45.410Z,101144.58
2023-12-29T06:15:58.517Z,101139.98
2023-12-29T06:18:28.226Z,101142.80
2023-12-29T06:20:47.362Z,101143.75
2023-12-29T06:22:58.290Z,101140.25
2023-12-29T06:25:14.052Z,101135.16
2023-12-29T06:27:36.417Z,101133.14
2023-12-29T06:29:49.983Z,101122.60
2023-12-29T06:31:59.840Z,101116.98
2023-12-29T06:34:09.968Z,101112.00
2023-12-29T06:36:19.774Z,101121.69
2023-12-29T06:38:32.240Z,101123.74
2023-12-29T06:40:51.629Z,101116.64
2023-12-29T06:43:21.136Z,101108.11
2023-12-29T06:45:33.911Z,101104.90
2023-12-29T06:48:03.963Z,101104.21
2023-12-29T06:50:24.861Z,101110.76
2023-12-29T06:52:35.680Z,101111.12
2023-12-29T06:54:47.849Z,101113.42
2023-12-29T06:57:07.745Z,101112.78
2023-12-29T06:59:17.702Z,101112.70
2023-12-29T07:01:27.090Z,101108.50
2023-12-29T07:03:39.640Z,101102.55
2023-12-29T07:05:49.654Z,101095.96
2023-12-29T07:07:59.817Z,101094.33
2023-12-29T07:10:15.114Z,101087.98
2023-12-29T07:12:34.833Z,101089.02
2023-12-29T07:14:47.715Z,101084.91
2023-12-29T07:16:57.314Z,101072.52
2023-12-29T07:19:10.227Z,101068.32
2023-12-29T07:21:22.932Z,101065.49
2023-12-29T07:23:35.321Z,101054.83
2023-12-29T07:25:48.688Z,101048.27
2023-12-29T07:28:09.762Z,101042.27
2023-12-29T07:30:20.905Z,101039.50
2023-12-29T07:32:39.602Z,101036.41
2023-12-29T07:34:50.075Z,101030.88
2023-12-29T07:37:20.698Z,101026.79
2023-12-29T07:39:30.239Z,101033.46
2023-12-29T07:41:44.548Z,101043.83
2023-12-29T07:44:15.239Z,101053.28
2023-12-29T07:46:30.313Z,101056.81
2023-12-29T07:48:51.048Z,101040.63
2023-12-29T07:51:07.157Z,101027.60
2023-12-29T07:53:17.037Z,101032.20
2023-12-29T07:55:26.367Z,101042.98
2023-12-29T07:57:45.779Z,101036.92
2023-12-29T07:59:58.373Z,101028.02
2023-12-29T08:02:11.484Z,101023.96
2023-12-29T08:04:20.767Z,101027.56
2023-12-29T08:06:41.906Z,101024.96
2023-12-29T08:08:54.212Z,101014.04
2023-12-29T08:11:19.131Z,101003.31
2023-12-29T08:13:28.582Z,100997.98
2023-12-29T08:15:41.281Z,101000.09
2023-12-29T08:17:53.846Z,101000.08
2023-12-29T08:20:03.669Z,100998.28
2023-12-29T08:22:13.747Z,100990.50
2023-12-29T08:24:23.063Z,100980.27
2023-12-29T08:26:32.439Z,100965.50
2023-12-29T08:28:41.748Z,100962.23
2023-12-29T08:30:51.428Z,100959.95
2023-12-29T08:33:14.047Z,100939.11
2023-12-29T08:35:23.342Z,100936.86
2023-12-29T08:37:36.077Z,100933.14
2023-12-29T08:39:45.504Z,100925.75
2023-12-29T08:42:14.892Z,100925.59
2023-12-29T08:44:24.545Z,100936.41
2023-12-29T08:46:36.877Z,100953.44
2023-12-29T08:48:46.463Z,100973.61
2023-12-29T08:50:58.610Z,100971.73
2023-12-29T08:53:11.048Z,100957.98
2023-12-29T08:55:20.431Z,100949.27
2023-12-29T08:57:34.074Z,100935.66
2023-12-29T08:59:43.633Z,100932.16
2023-12-29T09:01:53.705Z,100926.27
2023-12-29T09:04:13.241Z,100934.58
2023-12-29T09:06:22.594Z,100931.91
2023-12-29T09:08:49.508Z,100927.29
2023-12-29T09:11:09.238Z,100924.24
2023-12-29T09:13:28.352Z,100912.11
2023-12-29T09:15:37.741Z,100905.51
2023-12-29T09:17:47.209Z,100892.98
2023-12-29T09:20:00.747Z,100888.27
2023-12-29T09:22:16.465Z,100877.92
2023-12-29T09:24:26.318Z,100867.79
2023-12-29T09:26:36.196Z,100851.88
2023-12-29T09:28:46.705Z,100844.15
2023-12-29T09:30:56.258Z,100866.11
2023-12-29T09:33:06.477Z,100873.03
2023-12-29T09:35:26.445Z,100874.67
2023-12-29T09:37:35.917Z,100890.82
2023-12-29T09:39:48.616Z,100911.02
2023-12-29T09:42:02.091Z,100917.20
2023-12-29T09:44:16.773Z,100927.20
2023-12-29T09:46:32.956Z,100927.76
2023-12-29T09:49:06.382Z,100919.23
2023-12-29T09:51:16.791Z,100913.36
2023-12-29T09:53:27.375Z,100910.89
2023-12-29T09:55:38.682Z,100913.21
2023-12-29T09:57:51.845Z,100906.48
2023-12-29T10:00:18.218Z,100897.56
2023-12-29T10:02:30.930Z,100899.64
2023-12-29T10:04:40.401Z,100902.36
2023-12-29T10:07:06.420Z,100905.25
2023-12-29T10:09:40.149Z,100902.80
2023-12-29T10:11:51.262Z,100896.58
2023-12-29T10:14:20.196Z,100902.39
2023-12-29T10:16:35.706Z,100883.36
2023-12-29T10:19:16.700Z,100889.64
2023-12-29T10:21:32.803Z,100882.07
2023-12-29T10:23:46.327Z,100864.56
2023-12-29T10:25:55.891Z,100866.57
2023-12-29T10:28:05.615Z,100868.40
2023-12-29T10:30:25.386Z,100876.05
2023-12-29T10:32:43.889Z,100888.26
2023-12-29T10:35:10.354Z,100888.45
2023-12-29T10:37:31.184Z,100884.91
2023-12-29T10:39:57.437Z,100881.95
2023-12-29T10:42:15.123Z,100888.75
2023-12-29T10:44:25.005Z,100877.27
2023-12-29T10:46:54.888Z,100876.78
2023-12-29T10:49:11.921Z,100869.59
2023-12-29T10:51:31.832Z,100866.38
2023-12-29T10:53:44.823Z,100865.84
2023-12-29T10:56:03.268Z,100858.42
2023-12-29T10:58:18.740Z,100850.82
2023-12-29T11:00:48.612Z,100849.66
2023-12-29T11:03:01.963Z,100847.37
2023-12-29T11:05:12.665Z,100853.24
2023-12-29T11:07:41.245Z,100845.92
2023-12-29T11:09:50.839Z,100840.63
2023-12-29T11:12:02.171Z,100834.98
2023-12-29T11:14:15.574Z,100832.34
2023-12-29T11:16:26.081Z,100838.27
2023-12-29T11:18:36.618Z,100838.59
2023-12-29T11:20:47.055Z,100832.24
2023-12-29T11:23:00.135Z,100828.53
2023-12-29T11:25:11.330Z,100828.73
2023-12-29T11:27:21.885Z,100830.64
2023-12-29T11:29:44.207Z,100820.77
2023-12-29T11:31:55.283Z,100814.37
2023-12-29T11:34:22.352Z,100814.02
2023-12-29T11:36:37.008Z,100800.57
2023-12-29T11:39:05.033Z,100799.00
2023-12-29T11:41:25.320Z,100789.45
2023-12-29T11:43:34.994Z,100794.96
2023-12-29T11:49:28.182Z,100780.64
2023-12-29T11:51:42.877Z,100763.94
2023-12-29T11:53:52.256Z,100770.73
2023-12-29T11:56:05.014Z,100772.91
2023-12-29T11:58:31.157Z,100780.10
2023-12-29T12:00:53.248Z,100783.00
2023-12-29T12:03:03.828Z,100794.80
2023-12-29T12:05:15.475Z,100796.98
2023-12-29T12:08:02.369Z,100795.35
2023-12-29T12:10:35.707Z,100787.51
2023-12-29T12:12:56.418Z,100792.70
2023-12-29T12:15:38.783Z,100804.79
2023-12-29T12:18:11.159Z,100781.36
2023-12-29T12:20:31.127Z,100767.35
2023-12-29T12:23:04.655Z,100800.29
2023-12-29T12:25:18.273Z,100808.33
2023-12-29T12:27:34.309Z,100788.66
2023-12-29T12:29:56.527Z,100758.32
2023-12-29T12:32:06.146Z,100704.95
2023-12-29T12:34:19.466Z,100668.20
2023-12-29T12:36:29.586Z,100684.23
2023-12-29T12:38:57.290Z,100715.16
2023-12-29T12:41:27.715Z,100722.47
2023-12-29T12:43:40.030Z,100736.16
2023-12-29T12:45:51.157Z,100763.70
2023-12-29T12:48:15.989Z,100787.71
2023-12-29T12:50:25.719Z,100797.21
2023-12-29T12:52:38.078Z,100791.17
2023-12-29T12:54:51.265Z,100799.98
2023-12-29T12:57:00.890Z,100792.17
2023-12-29T12:59:10.842Z,100784.95
2023-12-29T13:01:20.576Z,100780.20
2023-12-29T13:03:30.529Z,100760.14
2023-12-29T13:05:50.619Z,100741.33
2023-12-29T13:08:04.806Z,100715.51
2023-12-29T13:10:14.900Z,100698.83
2023-12-29T13:12:25.527Z,100676.35
2023-12-29T13:14:34.896Z,100683.01
2023-12-29T13:17:12.111Z,100708.25
2023-12-29T13:19:25.908Z,100676.28
2023-12-29T13:21:36.320Z,100649.25
2023-12-29T13:23:45.745Z,100624.50
2023-12-29T13:26:05.098Z,100653.99
2023-12-29T13:28:26.173Z,100665.81
2023-12-29T13:30:56.155Z,100707.05
2023-12-29T13:33:18.589Z,100756.70
2023-12-29T13:35:51.428Z,100735.95
2023-12-29T13:38:13.504Z,100707.99
2023-12-29T13:40:46.796Z,100703.42
2023-12-29T13:43:18.580Z,100705.56
2023-12-29T13:45:29.072Z,100694.91
2023-12-29T13:47:39.622Z,100693.71
2023-12-29T13:49:53.240Z,100672.45
2023-12-29T13:52:05.694Z,100654.91
2023-12-29T13:54:15.526Z,100650.80
2023-12-29T13:56:28.218Z,100645.42
2023-12-29T13:58:56.107Z,100650.05
2023-12-29T14:01:11.990Z,100636.55
2023-12-29T14:03:35.224Z,100622.13
2023-12-29T14:05:54.574Z,100608.98
2023-12-29T14:08:11.452Z,100617.52
2023-12-29T14:10:21.184Z,100614.37
2023-12-29T14:12:30.628Z,100603.09
2023-12-29T14:14:44.079Z,100597.45
2023-12-29T14:17:13.370Z,100608.65
2023-12-29T14:19:40.628Z,100623.27
2023-12-29T14:21:57.156Z,100624.95
2023-12-29T14:24:13.365Z,100646.17
2023-12-29T14:26:22.721Z,100650.59
2023-12-29T14:28:32.031Z,100648.41
2023-12-29T14:31:07.692Z,100648.05
2023-12-29T14:33:17.202Z,100644.50
2023-12-29T14:35:26.801Z,100630.38
2023-12-29T14:37:56.209Z,100628.83
2023-12-29T14:40:13.311Z,100620.11
2023-12-29T14:42:25.987Z,100614.71
2023-12-29T14:44:36.356Z,100631.30
2023-12-29T14:46:46.318Z,100631.38
2023-12-29T14:48:57.330Z,100627.08
2023-12-29T14:51:10.536Z,100627.63
2023-12-29T14:53:19.735Z,100618.61
2023-12-29T14:55:29.270Z,100622.44
2023-12-29T14:57:49.154Z,100614.21
2023-12-29T14:59:58.506Z,100611.19
2023-12-29T15:02:09.173Z,100600.15
2023-12-29T15:04:21.820Z,100601.80
2023-12-29T15:06:31.404Z,100588.27
2023-12-29T15:08:40.942Z,100582.13
2023-12-29T15:10:50.341Z,100575.48
2023-12-29T15:13:19.654Z,100573.04
2023-12-29T15:15:32.308Z,100580.36
2023-12-29T15:17:45.021Z,100573.55
2023-12-29T15:19:54.319Z,100583.95
2023-12-29T15:22:07.463Z,100574.08
2023-12-29T15:24:19.807Z,100557.67
2023-12-29T15:26:29.168Z,100548.02
2023-12-29T15:28:38.504Z,100535.77
2023-12-29T15:30:52.108Z,100525.84
2023-12-29T15:33:11.510Z,100524.75
2023-12-29T15:35:21.210Z,100526.05
2023-12-29T15:37:30.801Z,100522.15
2023-12-29T15:39:50.075Z,100527.13
2023-12-29T15:41:59.489Z,100532.80
2023-12-29T15:44:09.770Z,100514.39
2023-12-29T15:46:23.704Z,100510.50
2023-12-29T15:48:36.707Z,100512.73
2023-12-29T15:50:46.211Z,100509.55
2023-12-29T15:52:55.783Z,100511.39
2023-12-29T15:55:14.999Z,100506.55
2023-12-29T15:57:24.429Z,100506.44
2023-12-29T15:59:33.837Z,100484.80
2023-12-29T16:01:53.731Z,100470.28
2023-12-29T16:04:04.067Z,100479.52
2023-12-29T16:06:23.002Z,100472.86
2023-12-29T16:08:33.077Z,100467.48
2023-12-29T16:10:42.515Z,100471.80
2023-12-29T16:13:11.935Z,100465.63
2023-12-29T16:15:21.225Z,100488.50
2023-12-29T16:17:33.568Z,100485.78
2023-12-29T16:19:52.584Z,100498.80
2023-12-29T16:22:02.113Z,100500.69
2023-12-29T16:24:14.005Z,100508.91
2023-12-29T16:26:38.386Z,100509.29
2023-12-29T16:28:51.948Z,100490.89
2023-12-29T16:31:12.359Z,100491.92
2023-12-29T16:33:22.905Z,100488.88
2023-12-29T16:35:33.358Z,100495.19
2023-12-29T16:37:42.885Z,100494.88
2023-12-29T16:40:13.534Z,100505.43
2023-12-29T16:42:22.961Z,100490.86
2023-12-29T16:44:43.251Z,100492.65
2023-12-29T16:46:55.945Z,100486.07
2023-12-29T16:49:05.724Z,100478.95
2023-12-29T16:51:25.523Z,100480.75
2023-12-29T16:53:48.825Z,100490.23
2023-12-29T16:55:59.174Z,100489.83
2023-12-29T16:58:21.351Z,100485.48
2023-12-29T17:00:30.774Z,100485.16
2023-12-29T17:02:43.855Z,100487.20
2023-12-29T17:04:53.630Z,100479.16
2023-12-29T17:07:03.576Z,100482.14
2023-12-29T17:09:23.469Z,100475.61
2023-12-29T17:11:33.096Z,100493.80
2023-12-29T17:13:42.496Z,100495.30
2023-12-29T17:16:02.271Z,100498.04
2023-12-29T17:18:22.742Z,100491.77
2023-12-29T17:20:42.552Z,100490.45
2023-12-29T17:23:03.609Z,100494.19
2023-12-29T17:25:39.516Z,100493.52
2023-12-29T17:28:00.870Z,100493.52
2023-12-29T17:30:18.058Z,100488.65
2023-12-29T17:32:47.389Z,100506.39
2023-12-29T17:34:56.901Z,100488.48
2023-12-29T17:37:06.567Z,100484.16
2023-12-29T17:39:15.939Z,100485.39
2023-12-29T17:41:39.552Z,100474.67
2023-12-29T17:44:09.985Z,100481.13
2023-12-29T17:46:39.407Z,100477.09
2023-12-29T17:48:54.539Z,100483.36
2023-12-29T17:51:07.054Z,100497.95
2023-12-29T17:53:18.593Z,100499.94
2023-12-29T17:55:31.028Z,100493.27
2023-12-29T17:57:50.560Z,100489.40
2023-12-29T18:00:03.204Z,100490.91
2023-12-29T18:02:14.117Z,100494.98
2023-12-29T18:04:23.400Z,100495.26
2023-12-29T18:06:33.372Z,100490.65
2023-12-29T18:08:43.853Z,100494.44
2023-12-29T18:10:53.409Z,100489.04
2023-12-29T18:13:15.434Z,100493.49
2023-12-29T18:15:44.319Z,100487.11
2023-12-29T18:17:53.991Z,100486.27
2023-12-29T18:20:03.636Z,100480.66
2023-12-29T18:22:18.832Z,100482.73
2023-12-29T18:24:41.206Z,100486.61
2023-12-29T18:26:50.563Z,100485.88
2023-12-29T18:28:59.812Z,100485.84
2023-12-29T18:31:09.524Z,100479.65
2023-12-29T18:33:18.974Z,100465.98
2023-12-29T18:35:31.627Z,100466.23
2023-12-29T18:37:46.344Z,100472.78
2023-12-29T18:39:59.533Z,100483.26
2023-12-29T18:42:09.789Z,100491.61
2023-12-29T18:44:19.150Z,100485.00
2023-12-29T18:46:29.499Z,100477.78
2023-12-29T18:48:49.120Z,100469.45
2023-12-29T18:51:19.512Z,100462.36
2023-12-29T18:53:32.366Z,100473.93
2023-12-29T18:56:02.121Z,100464.23
2023-12-29T18:58:11.616Z,100460.55
2023-12-29T19:00:32.917Z,100440.58
2023-12-29T19:02:42.262Z,100450.55
2023-12-29T19:04:51.673Z,100456.98
2023-12-29T19:07:01.163Z,100453.92
2023-12-29T19:09:12.482Z,100453.35
2023-12-29T19:11:25.644Z,100452.30
2023-12-29T19:13:42.418Z,100446.15
2023-12-29T19:15:52.297Z,100434.35
2023-12-29T19:18:06.263Z,100419.61
2023-12-29T19:20:35.712Z,100410.63
2023-12-29T19:22:44.900Z,100414.90
2023-12-29T19:24:55.017Z,100425.88
2023-12-29T19:27:09.020Z,100425.08
2023-12-29T19:29:38.885Z,100391.41
2023-12-29T19:31:58.018Z,100408.24
2023-12-29T19:34:10.555Z,100407.27
2023-12-29T19:36:21.051Z,100405.36
2023-12-29T19:38:30.399Z,100404.21
2023-12-29T19:40:59.713Z,100404.81
2023-12-29T19:43:09.762Z,100393.41
2023-12-29T19:45:19.567Z,100368.13
2023-12-29T19:47:32.484Z,100359.15
2023-12-29T19:49:46.866Z,100374.77
2023-12-29T19:51:56.510Z,100371.64
2023-12-29T19:54:09.302Z,100349.44
2023-12-29T19:56:27.214Z,100331.95
2023-12-29T19:58:39.873Z,100339.64
2023-12-29T20:00:49.722Z,100350.14
2023-12-29T20:02:59.650Z,100352.85
2023-12-29T20:05:15.733Z,100340.11
2023-12-29T20:07:28.510Z,100332.94
2023-12-29T20:09:44.072Z,100334.63
2023-12-29T20:11:53.712Z,100333.88
2023-12-29T20:14:05.055Z,100321.33
2023-12-29T20:16:24.710Z,100305.31
2023-12-29T20:18:39.078Z,100312.88
2023-12-29T20:21:08.851Z,100330.05
2023-12-29T20:23:18.234Z,100323.73
2023-12-29T20:25:27.649Z,100327.52
2023-12-29T20:27:40.980Z,100320.88
2023-12-29T20:30:00.607Z,100310.40
2023-12-29T20:32:13.479Z,100299.38
2023-12-29T20:34:34.723Z,100290.52
2023-12-29T20:36:44.209Z,100286.86
2023-12-29T20:38:57.075Z,100288.00
2023-12-29T20:41:06.922Z,100294.56
2023-12-29T20:43:16.347Z,100297.19
2023-12-29T20:45:25.706Z,100292.23
2023-12-29T20:47:38.756Z,100269.27
2023-12-29T20:49:51.422Z,100270.48
2023-12-29T20:52:00.717Z,100273.47
2023-12-29T20:54:10.080Z,100287.84
2023-12-29T20:56:19.615Z,100289.18
2023-12-29T20:58:30.461Z,100286.04
2023-12-29T21:00:49.488Z,100280.52
2023-12-29T21:03:10.097Z,100269.98
2023-12-29T21:05:23.479Z,100268.65
2023-12-29T21:07:44.089Z,100258.05
2023-12-29T21:09:54.732Z,100265.30
2023-12-29T21:12:05.351Z,100265.35
2023-12-29T21:14:17.736Z,100272.84
2023-12-29T21:16:27.162Z,100262.57
2023-12-29T21:18:48.438Z,100262.09
2023-12-29T21:21:01.642Z,100263.02
2023-12-29T21:23:10.997Z,100253.81
2023-12-29T21:25:21.075Z,100258.23
2023-12-29T21:27:32.447Z,100244.35
2023-12-29T21:29:42.538Z,100250.92
2023-12-29T21:31:55.582Z,100244.42
2023-12-29T21:34:05.552Z,100246.08
2023-12-29T21:36:25.623Z,100240.20
2023-12-29T21:38:44.867Z,100240.83
2023-12-29T21:40:54.515Z,100247.30
2023-12-29T21:43:04.804Z,100241.88
2023-12-29T21:45:28.024Z,100235.89
2023-12-29T21:47:42.804Z,100227.46
2023-12-29T21:49:52.482Z,100221.08
2023-12-29T21:52:05.721Z,100224.60
2023-12-29T21:54:18.162Z,100219.02
2023-12-29T21:56:27.522Z,100213.44
2023-12-29T21:58:39.439Z,100207.84
2023-12-29T22:01:20.823Z,100215.50
2023-12-29T22:03:33.507Z,100223.56
2023-12-29T22:05:43.105Z,100226.75
2023-12-29T22:08:02.683Z,100223.90
2023-12-29T22:10:33.082Z,100220.75
2023-12-29T22:12:42.624Z,100231.44
2023-12-29T22:14:56.177Z,100230.15
2023-12-29T22:17:25.729Z,100223.80
2023-12-29T22:19:45.578Z,100216.79
2023-12-29T22:21:55.352Z,100216.38
2023-12-29T22:24:04.888Z,100218.40
2023-12-29T22:26:35.960Z,100231.23
2023-12-29T22:28:46.633Z,100237.22
2023-12-29T22:30:57.388Z,100233.73
2023-12-29T22:33:10.630Z,100230.43
2023-12-29T22:35:20.828Z,100239.27
2023-12-29T22:37:41.443Z,100248.56
2023-12-29T22:39:51.308Z,100254.56
2023-12-29T22:42:04.094Z,100242.56
2023-12-29T22:44:14.653Z,100230.81
2023-12-29T22:46:26.240Z,100215.08
2023-12-29T22:48:35.968Z,100207.41
2023-12-29T22:50:59.211Z,100203.41
2023-12-29T22:53:09.152Z,100217.66
2023-12-29T22:55:21.593Z,100234.41
2023-12-29T22:57:45.255Z,100233.47
2023-12-29T22:59:58.881Z,100246.47
2023-12-29T23:02:11.658Z,100250.46
2023-12-29T23:04:32.036Z,100261.67
2023-12-29T23:06:51.298Z,100272.18
2023-12-29T23:09:04.192Z,100277.36
2023-12-29T23:11:16.556Z,100282.30
2023-12-29T23:13:26.749Z,100293.89
2023-12-29T23:15:48.485Z,100305.73
2023-12-29T23:17:57.931Z,100330.63
2023-12-29T23:20:17.645Z,100328.35
2023-12-29T23:22:27.161Z,100338.36
2023-12-29T23:24:46.712Z,100349.45
2023-12-29T23:26:59.409Z,100360.72
2023-12-29T23:29:17.708Z,100361.39
2023-12-29T23:31:52.125Z,100382.80
2023-12-29T23:34:01.372Z,100398.27
2023-12-29T23:36:30.806Z,100403.20
2023-12-29T23:38:54.076Z,100426.27
2023-12-29T23:41:23.307Z,100448.58
2023-12-29T23:43:54.841Z,100465.05
2023-12-29T23:46:04.093Z,100473.13
2023-12-29T23:48:14.595Z,100479.22
2023-12-29T23:50:24.219Z,100480.79
2023-12-29T23:52:36.973Z,100478.89
2023-12-29T23:54:46.547Z,100477.25
2023-12-29T23:57:16.040Z,100490.02
2023-12-29T23:59:25.600Z,100499.02
